Time;durP1;ratioP1;P1;durP2;ratioP2;P2;SDS_P1;SDS_P2;PMS_P1;PMS_P2;Temp;Humidity;BMP_temperature;BMP_pressure;BME280_temperature;BME280_humidity;BME280_pressure;Samples;Min_cycle;Max_cycle;Signal;HPM_P1;HPM_P2
2021/10/09 00:02:13;;;;;;;2.00;0.90;;;;;;;10.20;100.00;101024.44;4998467;28;20026;-72
2021/10/09 00:04:39;;;;;;;1.23;0.88;;;;;;;10.19;100.00;101020.09;5010193;28;20018;-73
2021/10/09 00:07:04;;;;;;;0.75;0.70;;;;;;;10.06;100.00;101002.28;4994943;28;20026;-74
2021/10/09 00:09:30;;;;;;;0.80;0.80;;;;;;;10.23;100.00;101029.75;4995648;28;20041;-77
2021/10/09 00:11:55;;;;;;;0.60;0.60;;;;;;;10.00;100.00;100985.66;5009766;28;20033;-73
2021/10/09 00:14:21;;;;;;;1.75;1.10;;;;;;;10.20;100.00;101012.44;4997696;28;20025;-73
2021/10/09 00:16:47;;;;;;;0.75;0.73;;;;;;;10.24;100.00;101018.59;4997474;28;20145;-71
2021/10/09 00:19:14;;;;;;;1.52;1.27;;;;;;;10.34;100.00;101025.06;5006024;28;20022;-73
2021/10/09 00:21:44;;;;;;;1.48;0.90;;;;;;;10.26;100.00;101008.38;4978707;28;20550;-74
2021/10/09 00:24:14;;;;;;;4.45;1.30;;;;;;;10.32;100.00;101017.28;5005349;28;20092;-73
2021/10/09 00:26:40;;;;;;;4.00;0.90;;;;;;;10.35;100.00;101020.00;5012431;28;20115;-73
2021/10/09 00:29:05;;;;;;;1.80;1.00;;;;;;;10.38;100.00;101027.03;5002454;28;20025;-72
2021/10/09 00:31:31;;;;;;;3.20;1.00;;;;;;;10.13;100.00;100994.91;5012538;28;20080;-70
2021/10/09 00:33:57;;;;;;;2.33;1.13;;;;;;;10.28;100.00;101004.16;5008450;28;20081;-72
2021/10/09 00:36:22;;;;;;;1.50;0.80;;;;;;;10.32;100.00;101024.16;5006834;28;20022;-77
2021/10/09 00:38:48;;;;;;;1.50;1.10;;;;;;;10.23;100.00;101009.13;5013303;28;20072;-75
2021/10/09 00:41:14;;;;;;;1.55;1.10;;;;;;;10.08;100.00;100980.91;5010087;28;20040;-73
2021/10/09 00:43:39;;;;;;;4.85;1.00;;;;;;;10.30;100.00;101023.19;5007689;28;20022;-73
2021/10/09 00:46:05;;;;;;;1.58;0.95;;;;;;;10.38;100.00;101024.47;5009262;28;20461;-73
2021/10/09 00:48:33;;;;;;;2.47;0.90;;;;;;;10.26;100.00;101000.63;5008333;28;20057;-71
2021/10/09 00:50:58;;;;;;;2.13;0.90;;;;;;;10.27;100.00;101005.84;5012399;28;20018;-77
2021/10/09 00:53:25;;;;;;;2.47;1.10;;;;;;;10.39;100.00;101026.22;5010218;28;20564;-75
2021/10/09 00:55:54;;;;;;;2.92;1.13;;;;;;;10.41;100.00;101024.59;4993447;28;20125;-73
2021/10/09 00:58:22;;;;;;;1.17;0.95;;;;;;;10.38;100.00;101031.31;4996912;28;20481;-75
2021/10/09 01:00:48;;;;;;;2.00;1.00;;;;;;;10.49;100.00;101031.00;4995133;28;20034;-75
2021/10/09 01:03:14;;;;;;;3.08;0.90;;;;;;;10.45;100.00;101023.91;5010246;28;20455;-74
2021/10/09 01:05:39;;;;;;;1.92;1.05;;;;;;;10.35;100.00;101001.94;4998493;28;20101;-75
2021/10/09 01:08:05;;;;;;;0.77;0.77;;;;;;;10.58;100.00;101019.31;5008979;28;20129;-73
2021/10/09 01:10:31;;;;;;;1.80;0.93;;;;;;;10.75;100.00;101028.72;5011080;28;20028;-77
2021/10/09 01:12:58;;;;;;;2.42;0.85;;;;;;;10.85;100.00;101027.44;5012391;28;20055;-73
2021/10/09 01:15:31;;;;;;;2.58;1.10;;;;;;;10.91;100.00;101012.19;5012241;28;20030;-75
2021/10/09 01:18:05;;;;;;;2.45;0.90;;;;;;;10.83;100.00;100990.34;5009263;28;20076;-76
2021/10/09 01:21:04;;;;;;;2.60;1.13;;;;;;;11.03;100.00;101017.03;5010220;28;20026;-75
2021/10/09 01:23:32;;;;;;;1.63;1.00;;;;;;;11.04;100.00;101018.81;5012086;28;20018;-74
2021/10/09 01:25:58;;;;;;;0.98;0.90;;;;;;;11.01;100.00;101021.25;4977952;28;20065;-75
2021/10/09 01:28:24;;;;;;;3.28;0.90;;;;;;;10.91;100.00;101007.03;5008943;28;20080;-73
2021/10/09 01:30:54;;;;;;;0.82;0.82;;;;;;;10.71;100.00;101011.31;5011557;28;20025;-76
2021/10/09 01:33:20;;;;;;;1.35;0.80;;;;;;;10.55;100.00;101017.47;5011315;28;20511;-73
2021/10/09 01:35:56;;;;;;;0.68;0.63;;;;;;;10.51;100.00;101002.69;4994150;28;20026;-76
2021/10/09 01:38:24;;;;;;;0.80;0.80;;;;;;;10.36;100.00;100983.06;5011651;28;20501;-76
2021/10/09 01:40:50;;;;;;;0.75;0.75;;;;;;;10.28;100.00;100973.19;5011933;28;20053;-73
2021/10/09 01:43:18;;;;;;;1.02;0.80;;;;;;;10.18;100.00;100977.03;5010617;28;20010;-72
2021/10/09 01:45:45;;;;;;;2.00;0.90;;;;;;;10.38;100.00;101015.81;5011540;28;20010;-76
2021/10/09 01:48:11;;;;;;;1.33;0.77;;;;;;;10.17;100.00;101008.81;5011225;28;20026;-72
2021/10/09 01:50:37;;;;;;;2.60;0.75;;;;;;;10.16;100.00;101009.63;5011438;28;20056;-74
2021/10/09 01:53:05;;;;;;;3.50;1.00;;;;;;;10.15;100.00;101003.56;5011241;28;20010;-71
2021/10/09 01:55:31;;;;;;;1.85;1.17;;;;;;;10.26;100.00;101016.13;4992513;28;20077;-74
2021/10/09 01:57:56;;;;;;;2.03;1.20;;;;;;;9.87;100.00;100960.13;5009608;28;20477;-74
2021/10/09 02:00:22;;;;;;;1.75;1.10;;;;;;;10.26;100.00;101016.13;5011730;28;20021;-71
2021/10/09 02:02:48;;;;;;;2.25;1.50;;;;;;;10.24;100.00;101022.88;5011793;28;20049;-77
2021/10/09 02:05:13;;;;;;;1.30;1.20;;;;;;;10.14;100.00;101007.00;5011789;28;20021;-74
2021/10/09 02:07:39;;;;;;;0.98;0.80;;;;;;;9.97;100.00;100979.47;5011650;28;20061;-75
2021/10/09 02:10:04;;;;;;;1.55;0.98;;;;;;;10.12;100.00;101021.50;5011349;28;20112;-73
2021/10/09 02:12:32;;;;;;;2.65;1.10;;;;;;;10.22;100.00;101027.09;5011897;28;20464;-72
2021/10/09 02:15:10;;;;;;;1.45;1.00;;;;;;;10.28;100.00;101030.84;5006705;28;20034;-74
2021/10/09 02:25:48;;;;;;;2.17;1.05;;;;;;;10.23;100.00;101036.59;5011339;28;20076;-75
2021/10/09 02:28:19;;;;;;;1.17;0.93;;;;;;;9.86;100.00;100959.22;5011272;28;20026;-76
2021/10/09 02:30:45;;;;;;;1.08;0.98;;;;;;;10.18;100.00;101024.38;5011456;28;20028;-72
2021/10/09 02:33:11;;;;;;;2.38;0.90;;;;;;;10.25;100.00;101028.13;5011346;28;20032;-76
2021/10/09 02:35:38;;;;;;;2.35;1.17;;;;;;;10.26;100.00;101029.00;5011163;28;20087;-74
2021/10/09 02:38:04;;;;;;;1.58;1.05;;;;;;;10.00;100.00;100993.41;5011514;28;20516;-76
2021/10/09 02:40:30;;;;;;;2.60;1.30;;;;;;;10.16;100.00;101025.13;5011138;28;20460;-73
2021/10/09 02:42:55;;;;;;;2.10;1.08;;;;;;;10.12;100.00;101024.06;5011573;28;20427;-79
2021/10/09 02:45:21;;;;;;;2.15;1.10;;;;;;;10.06;100.00;101003.16;5011383;28;20025;-75
2021/10/09 02:47:46;;;;;;;1.85;1.05;;;;;;;10.07;100.00;101002.34;5011096;28;20025;-73
2021/10/09 02:50:16;;;;;;;1.92;1.40;;;;;;;10.02;100.00;101006.41;5011131;28;20025;-76
2021/10/09 02:52:42;;;;;;;2.88;1.52;;;;;;;9.97;100.00;100992.38;5011183;28;20029;-72
2021/10/09 02:55:08;;;;;;;1.67;1.15;;;;;;;10.09;100.00;101020.47;5010953;28;20060;-75
2021/10/09 02:57:34;;;;;;;3.72;1.40;;;;;;;10.07;100.00;101006.59;5011019;28;20048;-70
2021/10/09 02:59:59;;;;;;;1.92;1.20;;;;;;;10.18;100.00;101026.06;5011142;28;20026;-72
2021/10/09 03:02:25;;;;;;;3.25;1.50;;;;;;;10.27;100.00;101021.34;5010870;28;20022;-70
2021/10/09 03:04:50;;;;;;;2.42;1.42;;;;;;;10.29;100.00;101008.50;5010585;28;20068;-74
2021/10/09 03:07:16;;;;;;;1.48;1.17;;;;;;;10.45;100.00;101028.19;5011162;28;20026;-73
2021/10/09 03:09:41;;;;;;;2.15;1.38;;;;;;;10.51;100.00;101025.91;5011019;28;20033;-71
2021/10/09 03:12:07;;;;;;;3.10;1.20;;;;;;;10.55;100.00;101024.34;5011323;28;20463;-70
2021/10/09 03:14:32;;;;;;;1.63;1.17;;;;;;;10.54;100.00;101026.03;5010918;28;20418;-70
2021/10/09 03:16:57;;;;;;;1.70;1.15;;;;;;;10.54;100.00;101022.59;5010441;28;20022;-77
2021/10/09 03:19:23;;;;;;;2.92;1.35;;;;;;;10.51;100.00;101029.34;5010969;28;20030;-74
2021/10/09 03:21:48;;;;;;;1.60;1.02;;;;;;;10.45;100.00;101021.31;5010379;28;20018;-73
2021/10/09 03:24:14;;;;;;;2.20;1.17;;;;;;;10.40;100.00;101009.91;5011051;28;20030;-74
2021/10/09 03:26:39;;;;;;;1.98;1.30;;;;;;;10.45;100.00;101016.16;5011309;28;20445;-74
2021/10/09 03:29:05;;;;;;;2.10;1.05;;;;;;;10.40;100.00;101019.38;5010913;28;20034;-79
2021/10/09 03:31:30;;;;;;;2.80;1.20;;;;;;;10.49;100.00;101024.94;4993025;28;20030;-73
2021/10/09 03:33:56;;;;;;;1.95;1.40;;;;;;;10.53;100.00;101037.19;5012984;28;20029;-74
2021/10/09 03:36:21;;;;;;;1.63;1.40;;;;;;;10.59;100.00;101031.41;5014618;28;20083;-77
2021/10/09 03:38:47;;;;;;;2.10;1.60;;;;;;;10.65;100.00;101036.88;5014546;28;20026;-77
2021/10/09 03:41:14;;;;;;;2.85;1.30;;;;;;;10.61;100.00;101035.84;5014782;28;20025;-76
2021/10/09 03:43:41;;;;;;;2.88;1.30;;;;;;;10.46;100.00;100999.88;5014101;28;20504;-74
2021/10/09 03:46:16;;;;;;;2.58;1.20;;;;;;;10.60;100.00;101018.56;5014424;28;20025;-76
2021/10/09 03:53:51;;;;;;;1.75;1.35;;;;;;;10.61;100.00;101034.97;5014576;28;20032;-73
2021/10/09 03:56:16;;;;;;;1.75;1.20;;;;;;;10.54;100.00;101043.22;5007411;28;20051;-78
2021/10/09 03:58:42;;;;;;;1.55;1.20;;;;;;;10.47;100.00;101034.34;5013998;28;20517;-76
2021/10/09 04:01:07;;;;;;;5.47;1.10;;;;;;;10.32;100.00;101027.59;5014103;28;20032;-75
2021/10/09 04:03:33;;;;;;;3.38;1.00;;;;;;;10.17;100.00;101022.59;5014185;28;20014;-76
2021/10/09 04:05:58;;;;;;;1.05;1.00;;;;;;;10.01;100.00;101015.81;5011379;28;20040;-73
2021/10/09 04:08:24;;;;;;;4.63;1.33;;;;;;;10.25;100.00;101055.63;5011313;28;20025;-76
2021/10/09 04:10:49;;;;;;;1.85;1.08;;;;;;;10.07;100.00;101029.81;5014095;28;20022;-75
2021/10/09 04:13:14;;;;;;;2.53;1.20;;;;;;;10.17;100.00;101044.94;5010753;28;20040;-78
2021/10/09 04:15:40;;;;;;;4.22;1.30;;;;;;;10.12;100.00;101038.66;5014347;28;20087;-75
2021/10/09 04:18:05;;;;;;;3.83;1.30;;;;;;;10.09;100.00;101060.03;5013194;28;20033;-75
2021/10/09 04:20:31;;;;;;;3.75;1.50;;;;;;;10.13;100.00;101072.28;4995072;28;20029;-78
2021/10/09 04:22:56;;;;;;;2.97;1.30;;;;;;;9.77;100.00;101045.56;4995060;28;20362;-75
2021/10/09 04:25:22;;;;;;;2.50;1.38;;;;;;;9.90;100.00;101078.03;4994662;28;20138;-75
2021/10/09 04:27:47;;;;;;;2.38;1.20;;;;;;;9.84;100.00;101057.97;4994560;28;20101;-74
2021/10/09 04:30:13;;;;;;;1.45;1.08;;;;;;;9.95;100.00;101077.41;4994486;28;20377;-77
2021/10/09 04:32:38;;;;;;;1.90;1.55;;;;;;;10.07;100.00;101082.31;4994368;28;20449;-78
2021/10/09 04:35:04;;;;;;;1.88;1.25;;;;;;;9.90;100.00;101039.34;4994421;28;20030;-80
2021/10/09 04:37:30;;;;;;;2.72;1.15;;;;;;;10.01;100.00;101069.13;4994817;28;20027;-75
2021/10/09 04:39:58;;;;;;;1.73;1.20;;;;;;;9.81;100.00;101060.41;4994029;28;20481;-76
2021/10/09 04:42:23;;;;;;;4.68;2.53;;;;;;;9.87;100.00;101087.38;4994739;28;20048;-76
2021/10/09 04:44:49;;;;;;;5.03;3.10;;;;;;;9.90;100.00;101088.34;4994310;28;20449;-75
2021/10/09 04:47:14;;;;;;;6.20;4.43;;;;;;;9.76;100.00;101075.63;4994189;28;20022;-74
2021/10/09 04:49:40;;;;;;;15.07;9.38;;;;;;;9.84;100.00;101094.06;4994312;28;20424;-79
2021/10/09 04:52:05;;;;;;;13.95;9.52;;;;;;;9.77;100.00;101097.13;4994244;28;20428;-74
2021/10/09 04:54:31;;;;;;;23.85;19.42;;;;;;;9.77;100.00;101089.41;4994226;28;20096;-78
2021/10/09 04:56:56;;;;;;;10.02;7.28;;;;;;;9.58;100.00;101080.75;4994150;28;20065;-75
2021/10/09 04:59:22;;;;;;;7.15;4.80;;;;;;;9.59;100.00;101092.81;4993960;28;20061;-77
2021/10/09 05:01:47;;;;;;;13.98;12.68;;;;;;;9.68;100.00;101113.03;4994199;28;20030;-75
2021/10/09 05:04:12;;;;;;;31.60;28.75;;;;;;;9.66;100.00;101102.66;4994275;28;20034;-80
2021/10/09 05:06:38;;;;;;;16.30;13.77;;;;;;;9.66;100.00;101099.19;4994036;28;20085;-77
2021/10/09 05:09:03;;;;;;;4.93;3.38;;;;;;;9.34;100.00;101068.38;4994077;28;20022;-75
2021/10/09 05:11:29;;;;;;;2.90;1.58;;;;;;;9.60;100.00;101096.31;4976314;28;20073;-75
2021/10/09 05:13:55;;;;;;;2.67;0.98;;;;;;;9.48;100.00;101096.56;4994095;28;20033;-75
2021/10/09 05:16:20;;;;;;;2.75;1.52;;;;;;;9.54;100.00;101108.06;4993837;28;20060;-75
2021/10/09 05:18:46;;;;;;;1.90;1.30;;;;;;;9.52;100.00;101106.19;4993591;28;20027;-80
2021/10/09 05:21:12;;;;;;;3.05;1.70;;;;;;;9.44;100.00;101087.78;4993870;28;20521;-79
2021/10/09 05:23:37;;;;;;;2.92;1.40;;;;;;;9.24;100.00;101071.28;4993952;28;20026;-75
2021/10/09 05:26:05;;;;;;;1.35;1.17;;;;;;;9.51;100.00;101114.75;4993840;28;20465;-79
2021/10/09 05:28:52;;;;;;;2.75;1.80;;;;;;;9.29;100.00;101081.84;4993608;28;20526;-77
2021/10/09 05:31:29;;;;;;;4.63;1.52;;;;;;;9.39;100.00;101105.59;4993094;28;20045;-79
2021/10/09 05:33:55;;;;;;;1.88;1.48;;;;;;;9.43;100.00;101111.75;4993671;28;20065;-79
2021/10/09 05:36:22;;;;;;;1.75;1.50;;;;;;;9.43;100.00;101116.91;4993665;28;20425;-77
2021/10/09 05:38:48;;;;;;;1.92;1.45;;;;;;;9.18;100.00;101086.41;4975684;28;20193;-77
2021/10/09 05:41:14;;;;;;;1.40;1.30;;;;;;;9.34;100.00;101119.03;4993174;28;20053;-78
2021/10/09 05:43:39;;;;;;;2.53;1.58;;;;;;;9.35;100.00;101131.13;4992208;28;20026;-78
2021/10/09 05:46:05;;;;;;;1.48;1.30;;;;;;;9.31;100.00;101126.59;4993362;28;20088;-77
2021/10/09 05:48:35;;;;;;;1.60;1.20;;;;;;;9.28;100.00;101117.00;4991796;28;20034;-77
2021/10/09 05:53:52;;;;;;;2.22;1.73;;;;;;;9.40;100.00;101127.09;4992969;28;20030;-74
2021/10/09 05:58:53;;;;;;;3.38;2.28;;;;;;;9.29;100.00;101141.09;4993092;28;20439;-75
2021/10/09 06:32:21;;;;;;;2.78;1.63;;;;;;;9.09;100.00;101166.66;4951384;29;20026;-77
2021/10/09 07:01:49;;;;;;;4.38;1.92;;;;;;;9.07;100.00;101174.31;4950980;29;20050;-76
2021/10/09 07:04:15;;;;;;;2.70;1.40;;;;;;;9.13;100.00;101175.47;4951061;29;20039;-79
2021/10/09 07:06:41;;;;;;;1.42;1.30;;;;;;;9.13;100.00;101181.47;4950934;28;20430;-74
2021/10/09 07:09:07;;;;;;;3.92;1.80;;;;;;;9.06;100.00;101164.81;4953496;29;20062;-73
2021/10/09 07:11:32;;;;;;;2.22;1.45;;;;;;;9.09;100.00;101192.44;4954925;29;20466;-78
2021/10/09 07:13:58;;;;;;;2.85;1.58;;;;;;;9.17;100.00;101201.47;4954725;29;20050;-77
2021/10/09 07:16:23;;;;;;;3.97;1.40;;;;;;;8.95;100.00;101165.03;4954783;29;20418;-76
2021/10/09 07:18:49;;;;;;;1.60;1.45;;;;;;;9.06;100.00;101185.41;4954789;29;20118;-79
2021/10/09 07:21:14;;;;;;;1.73;1.50;;;;;;;9.13;100.00;101196.06;4954693;29;20039;-76
2021/10/09 07:23:40;;;;;;;3.13;1.77;;;;;;;9.08;100.00;101195.81;4954542;29;20031;-74
2021/10/09 07:26:07;;;;;;;1.75;1.38;;;;;;;9.19;100.00;101214.44;4938438;29;20067;-78
2021/10/09 07:28:33;;;;;;;2.42;1.70;;;;;;;9.12;100.00;101195.19;4954787;29;20402;-77
2021/10/09 07:30:58;;;;;;;4.05;1.98;;;;;;;9.15;100.00;101200.50;4954521;29;20031;-78
2021/10/09 07:33:24;;;;;;;2.33;1.70;;;;;;;9.27;100.00;101213.16;4959010;28;20034;-77
2021/10/09 07:35:49;;;;;;;5.57;2.40;;;;;;;9.18;100.00;101203.25;4995567;28;20377;-77
2021/10/09 07:38:14;;;;;;;4.22;2.78;;;;;;;9.37;100.00;101219.69;4995589;28;20026;-73
2021/10/09 07:40:40;;;;;;;4.85;2.97;;;;;;;9.44;100.00;101226.06;4995607;28;20022;-78
2021/10/09 07:43:05;;;;;;;3.90;2.17;;;;;;;9.29;100.00;101197.78;4995632;28;20392;-74
2021/10/09 07:45:32;;;;;;;2.47;1.88;;;;;;;9.22;100.00;101174.25;4995902;28;20049;-77
2021/10/09 07:47:58;;;;;;;2.38;1.60;;;;;;;9.47;100.00;101223.63;4995543;28;20025;-78
2021/10/09 07:50:23;;;;;;;4.00;2.00;;;;;;;9.39;100.00;101197.47;4995379;28;20023;-73
2021/10/09 07:52:49;;;;;;;1.50;1.40;;;;;;;9.59;100.00;101221.72;4995087;28;20388;-77
2021/10/09 07:55:14;;;;;;;4.53;1.80;;;;;;;9.52;100.00;101197.31;4994862;28;20027;-77
2021/10/09 07:57:40;;;;;;;4.22;1.95;;;;;;;9.49;100.00;101204.00;4995080;28;20046;-75
2021/10/09 08:00:06;;;;;;;5.60;1.90;;;;;;;9.72;100.00;101228.44;4995278;28;20033;-74
2021/10/09 08:02:34;;;;;;;4.47;2.03;;;;;;;9.83;100.00;101229.88;4995434;28;20027;-74
2021/10/09 08:04:59;;;;;;;10.77;6.38;;;;;;;9.86;100.00;101232.59;4961272;28;20068;-75
2021/10/09 08:07:25;;;;;;;6.47;3.80;;;;;;;9.72;100.00;101192.34;4994930;28;20411;-74
2021/10/09 08:09:50;;;;;;;2.38;1.48;;;;;;;9.77;100.00;101189.97;4994972;28;20468;-74
2021/10/09 08:12:16;;;;;;;1.92;1.50;;;;;;;9.83;100.00;101187.72;4995057;28;20030;-78
2021/10/09 08:14:41;;;;;;;4.28;1.90;;;;;;;9.88;100.00;101209.47;4994889;28;20457;-74
2021/10/09 08:17:07;;;;;;;1.10;1.00;;;;;;;9.84;100.00;101199.81;4995157;28;20439;-77
2021/10/09 08:19:32;;;;;;;3.15;1.60;;;;;;;9.98;100.00;101218.56;4994160;28;20026;-79
2021/10/09 08:22:01;;;;;;;6.65;3.30;;;;;;;9.96;100.00;101205.59;4994759;28;20061;-74
2021/10/09 08:40:36;;;;;;;2.58;1.80;;;;;;;9.75;100.00;101182.16;5013941;28;20028;-77
2021/10/09 08:43:01;;;;;;;1.63;1.30;;;;;;;9.91;100.00;101206.19;4970112;28;20031;-76
2021/10/09 08:45:27;;;;;;;4.13;1.38;;;;;;;10.07;100.00;101231.03;4972611;28;20098;-76
2021/10/09 08:47:53;;;;;;;1.55;1.30;;;;;;;10.10;100.00;101215.75;4972402;28;20039;-75
2021/10/09 08:50:18;;;;;;;2.42;1.23;;;;;;;10.15;100.00;101204.81;4972300;28;20612;-74
2021/10/09 08:53:09;;;;;;;1.98;1.30;;;;;;;10.27;100.00;101229.47;4972186;28;20532;-75
2021/10/09 08:55:37;;;;;;;3.83;1.80;;;;;;;10.31;100.00;101224.56;4972354;28;20046;-77
2021/10/09 08:58:11;;;;;;;4.00;1.70;;;;;;;10.37;100.00;101236.91;4972005;28;20057;-76
2021/10/09 09:03:19;;;;;;;4.72;2.15;;;;;;;10.45;100.00;101235.59;4972240;28;20038;-79
2021/10/09 09:08:49;;;;;;;1.90;1.80;;;;;;;10.44;100.00;101230.34;4972007;28;20045;-79
2021/10/09 09:25:54;;;;;;;2.20;1.60;;;;;;;10.38;100.00;101183.59;4993916;28;20122;-76
2021/10/09 09:39:05;;;;;;;2.15;1.70;;;;;;;10.42;100.00;101201.91;4952279;29;20055;-77
2021/10/09 09:41:48;;;;;;;3.75;2.75;;;;;;;10.28;100.00;101244.16;4952175;29;20109;-79
2021/10/09 09:44:16;;;;;;;7.03;4.43;;;;;;;10.26;100.00;101240.63;4952212;29;20050;-74
2021/10/09 09:46:42;;;;;;;10.73;8.70;;;;;;;10.43;100.00;101252.72;4952060;29;20047;-79
2021/10/09 09:49:08;;;;;;;14.55;9.05;;;;;;;10.57;100.00;101255.09;4935973;29;20592;-75
2021/10/09 09:51:38;;;;;;;11.95;7.10;;;;;;;10.51;100.00;101247.94;4951898;29;20066;-75
2021/10/09 09:54:04;;;;;;;10.27;6.40;;;;;;;10.61;100.00;101237.25;4951998;29;20130;-76
2021/10/09 09:56:30;;;;;;;10.05;6.78;;;;;;;10.50;100.00;101241.91;4935578;29;20043;-76
2021/10/09 09:58:59;;;;;;;8.32;6.50;;;;;;;10.42;100.00;101230.28;4951727;29;20387;-76
2021/10/09 10:01:29;;;;;;;11.15;5.13;;;;;;;10.57;100.00;101224.13;4951893;29;20031;-79
2021/10/09 10:03:59;;;;;;;12.90;7.63;;;;;;;10.68;100.00;101233.28;4951858;28;20474;-76
2021/10/09 10:06:27;;;;;;;6.40;3.90;;;;;;;10.62;100.00;101222.66;4951832;29;20035;-78
2021/10/09 10:08:55;;;;;;;7.65;3.33;;;;;;;10.71;100.00;101245.44;4951608;29;20121;-78
2021/10/09 10:11:21;;;;;;;5.25;3.30;;;;;;;10.50;100.00;101239.31;4951593;29;20054;-74
2021/10/09 10:13:48;;;;;;;5.43;3.28;;;;;;;10.59;100.00;101262.13;4993483;28;20500;-76
2021/10/09 10:16:14;;;;;;;5.82;3.25;;;;;;;10.56;100.00;101240.41;5002757;28;20010;-76
2021/10/09 10:18:45;;;;;;;4.07;2.40;;;;;;;10.50;100.00;101267.72;5000988;28;20106;-73
2021/10/09 10:21:12;;;;;;;4.45;3.08;;;;;;;10.50;100.00;101247.06;5001286;28;20022;-76
2021/10/09 10:23:41;;;;;;;5.32;2.70;;;;;;;10.38;100.00;101259.34;5003123;28;20056;-73
2021/10/09 10:26:18;;;;;;;10.82;3.60;;;;;;;10.52;100.00;101260.03;5007656;28;20428;-76
2021/10/09 10:28:45;;;;;;;6.18;3.58;;;;;;;10.45;100.00;101245.91;4981796;28;20034;-77
2021/10/09 10:31:10;;;;;;;5.22;3.08;;;;;;;10.31;100.00;101214.22;4974595;28;20034;-75
2021/10/09 10:33:47;;;;;;;10.40;9.45;;;;;;;10.54;100.00;101249.78;4992217;28;20026;-75
2021/10/09 10:36:37;;;;;;;24.08;21.55;;;;;;;10.60;100.00;101242.34;4990966;28;20022;-75
2021/10/09 10:39:04;;;;;;;12.40;11.18;;;;;;;10.41;100.00;101214.72;4992165;28;20022;-75
2021/10/09 10:42:05;;;;;;;12.05;10.95;;;;;;;10.58;100.00;101243.94;5002910;28;20024;-74
2021/10/09 10:53:37;;;;;;;7.40;2.38;;;;;;;10.76;100.00;101236.22;4819702;29;20435;-76
2021/10/09 10:56:05;;;;;;;2.72;2.10;;;;;;;10.86;100.00;101238.44;4819523;29;20030;-74
2021/10/09 10:58:30;;;;;;;4.28;2.40;;;;;;;10.74;100.00;101206.84;4819497;29;20510;-73
2021/10/09 11:01:21;;;;;;;3.08;2.60;;;;;;;10.99;100.00;101234.72;4819592;29;20039;-73
2021/10/09 11:03:49;;;;;;;3.78;1.70;;;;;;;10.96;100.00;101232.00;4819065;29;20046;-72
2021/10/09 11:06:17;;;;;;;2.78;1.92;;;;;;;10.83;100.00;101192.69;4818194;29;20036;-73
2021/10/09 11:08:44;;;;;;;9.93;4.70;;;;;;;10.92;100.00;101206.84;4818795;29;20042;-75
2021/10/09 11:11:09;;;;;;;5.15;2.33;;;;;;;10.97;100.00;101215.69;4820763;29;20066;-76
2021/10/09 11:13:35;;;;;;;2.65;2.20;;;;;;;11.15;100.00;101234.66;4819957;29;20133;-74
2021/10/09 11:16:03;;;;;;;13.07;6.68;;;;;;;11.14;100.00;101221.66;4818793;29;20490;-75
2021/10/09 11:18:28;;;;;;;5.63;3.08;;;;;;;11.11;100.00;101222.38;4818534;29;20128;-73
2021/10/09 11:21:01;;;;;;;10.10;3.80;;;;;;;10.89;100.00;101181.75;4880926;29;20108;-73
2021/10/09 11:23:27;;;;;;;5.25;2.50;;;;;;;11.16;100.00;101215.75;4930186;29;20461;-74
2021/10/09 11:25:53;;;;;;;4.18;2.08;;;;;;;10.96;100.00;101196.72;4957074;28;20030;-75
2021/10/09 11:28:32;;;;;;;4.43;2.50;;;;;;;11.17;100.00;101214.06;4993820;28;20491;-75
2021/10/09 11:30:57;;;;;;;8.20;4.22;;;;;;;10.96;100.00;101198.44;4993420;28;20077;-73
2021/10/09 11:33:24;;;;;;;6.22;4.50;;;;;;;11.15;100.00;101213.09;4997447;28;20026;-76
2021/10/09 11:35:50;;;;;;;9.98;3.38;;;;;;;11.08;100.00;101218.78;4994723;28;20022;-75
2021/10/09 11:38:21;;;;;;;4.30;2.75;;;;;;;11.09;100.00;101216.28;4984826;28;20026;-75
2021/10/09 11:45:51;;;;;;;25.33;18.05;;;;;;;10.94;100.00;101185.44;4985632;28;20031;-71
2021/10/09 11:56:26;;;;;;;13.02;11.27;;;;;;;11.11;100.00;101221.53;4988298;28;20536;-75
2021/10/09 11:59:04;;;;;;;4.65;2.50;;;;;;;11.30;100.00;101220.66;4977241;28;20078;-74
2021/10/09 12:01:32;;;;;;;9.88;6.78;;;;;;;11.25;100.00;101220.47;4983255;28;20117;-74
2021/10/09 12:04:12;;;;;;;18.27;15.52;;;;;;;11.31;100.00;101212.09;4989971;28;20057;-74
2021/10/09 12:06:47;;;;;;;8.13;5.78;;;;;;;11.33;100.00;101220.81;4971462;28;20038;-73
2021/10/09 12:09:15;;;;;;;19.00;16.33;;;;;;;11.36;100.00;101214.91;4991459;28;20038;-70
2021/10/09 12:11:41;;;;;;;5.05;3.38;;;;;;;11.17;100.00;101216.63;4994190;28;20018;-70
2021/10/09 12:14:11;;;;;;;3.25;2.58;;;;;;;11.17;100.00;101221.81;4994458;28;20112;-71
2021/10/09 12:16:48;;;;;;;4.82;3.03;;;;;;;11.16;100.00;101213.19;4993410;28;20073;-70
2021/10/09 12:19:28;;;;;;;5.43;3.22;;;;;;;11.33;100.00;101223.41;4993289;28;20019;-70
2021/10/09 12:21:53;;;;;;;4.68;3.28;;;;;;;11.08;100.00;101193.84;4994356;28;20433;-71
2021/10/09 12:24:20;;;;;;;5.53;3.38;;;;;;;11.30;100.00;101211.22;4995789;28;20106;-71
2021/10/09 12:27:04;;;;;;;3.03;2.20;;;;;;;11.40;100.00;101211.63;4994134;28;20054;-71
2021/10/09 12:29:37;;;;;;;4.70;3.28;;;;;;;11.56;100.00;101211.50;4993605;28;20033;-72
2021/10/09 12:32:17;;;;;;;6.97;3.20;;;;;;;11.56;100.00;101214.09;4998026;28;20118;-73
2021/10/09 12:34:45;;;;;;;4.95;2.78;;;;;;;11.69;100.00;101224.97;4994355;28;20026;-72
2021/10/09 12:37:26;;;;;;;6.05;3.08;;;;;;;11.74;100.00;101228.66;4994601;28;20034;-72
2021/10/09 12:40:12;;;;;;;6.65;4.45;;;;;;;11.87;100.00;101235.28;4993607;28;20081;-72
2021/10/09 12:42:37;;;;;;;9.50;5.75;;;;;;;11.87;100.00;101206.81;4997911;28;20017;-72
2021/10/09 12:45:04;;;;;;;6.40;3.42;;;;;;;11.91;100.00;101213.88;4991971;28;20029;-72
2021/10/09 12:47:29;;;;;;;7.88;4.80;;;;;;;11.90;100.00;101223.34;4995242;28;20036;-72
2021/10/09 12:49:55;;;;;;;12.95;5.22;;;;;;;11.95;100.00;101213.19;4995616;28;20117;-72
2021/10/09 12:52:21;;;;;;;5.50;2.88;;;;;;;12.01;100.00;101203.13;4998824;28;20030;-72
2021/10/09 12:54:46;;;;;;;19.17;6.75;;;;;;;12.13;100.00;101216.59;4993700;28;20018;-72
2021/10/09 12:57:11;;;;;;;20.52;6.95;;;;;;;12.19;100.00;101216.00;4993054;28;20389;-72
2021/10/09 12:59:37;;;;;;;11.85;5.95;;;;;;;12.21;100.00;101206.59;4997933;28;20076;-72
2021/10/09 13:02:03;;;;;;;19.13;11.02;;;;;;;12.37;100.00;101215.00;4995110;28;20421;-72
2021/10/09 13:04:29;;;;;;;21.67;8.10;;;;;;;12.42;100.00;101224.72;4995585;28;20022;-72
2021/10/09 13:06:54;;;;;;;14.75;7.03;;;;;;;12.40;99.83;101209.91;4993009;28;20014;-72
2021/10/09 13:09:20;;;;;;;27.25;15.88;;;;;;;12.42;99.61;101219.56;4993750;28;20018;-72
2021/10/09 13:11:49;;;;;;;19.75;8.77;;;;;;;12.51;99.15;101225.91;4993002;28;20123;-71
2021/10/09 13:14:15;;;;;;;16.30;9.50;;;;;;;12.45;98.32;101211.03;4993062;28;20101;-72
2021/10/09 13:16:40;;;;;;;16.67;9.18;;;;;;;12.45;97.95;101222.25;4997763;28;20108;-72
2021/10/09 13:19:06;;;;;;;9.30;6.10;;;;;;;12.45;97.55;101227.44;4991389;28;20504;-71
2021/10/09 13:21:32;;;;;;;9.50;5.05;;;;;;;12.39;96.28;101234.06;5012992;28;20030;-69
2021/10/09 13:23:58;;;;;;;12.32;5.97;;;;;;;12.23;96.37;101204.06;5012670;28;20041;-69
2021/10/09 13:26:23;;;;;;;14.65;5.40;;;;;;;12.40;95.78;101223.78;5013046;28;20017;-74
2021/10/09 13:28:48;;;;;;;17.27;6.00;;;;;;;12.43;96.26;101218.69;5012795;28;20522;-71
2021/10/09 13:31:14;;;;;;;13.27;7.82;;;;;;;12.39;95.96;101221.13;5013113;28;20018;-71
2021/10/09 13:33:39;;;;;;;14.32;10.95;;;;;;;12.39;96.62;101232.34;5012347;28;20022;-70
2021/10/09 13:36:06;;;;;;;9.10;7.70;;;;;;;12.30;96.50;101213.88;5012733;28;20016;-77
2021/10/09 13:38:33;;;;;;;11.10;5.78;;;;;;;12.38;94.14;101232.31;4995135;28;20103;-72
2021/10/09 13:40:59;;;;;;;10.32;6.95;;;;;;;12.23;95.41;101191.13;5003968;28;20030;-73
2021/10/09 13:43:24;;;;;;;10.40;6.78;;;;;;;12.26;94.47;101215.44;5006630;28;20022;-72
2021/10/09 13:45:50;;;;;;;11.18;5.82;;;;;;;12.33;95.31;101226.91;5012866;28;20176;-75
2021/10/09 13:48:15;;;;;;;9.35;5.47;;;;;;;12.31;95.83;101225.97;5012344;28;20022;-73